Holly Ann — WDE9094 — position and weather

sailwx.info

Track history (hours):
 
Tides and Currents Weather Stations Pressure Air Temp Water Temp Dewpoint Dewpoint Depression Visibility Wind Speed Wind Dir Waves Ship Positions

Holly Ann

Owner: Manke Tug and Barge Co., Inc., Shelton, WA. More information available from US FCC via Universal Licensing System and Coast Guard Vessel Documentation Center.

Last reported at 2017-Jun-27 06:30 UTC. Time now 2017-Jun-27 06:52 UTC.
Position N 47°59' W 122°14'.

; draft 4.5 m.

Type: Towing. MMSI: 367413350.

Date/timePositionNaut miles runAvg speedWind from/ knotsBaromVisibWave heightAir tempDewpointWater temp
2017-Jun-27 06:30N 47°59' W 122°14'0 0.0
2017-Jun-27 06:00N 47°59' W 122°14'0 0.0
2017-Jun-27 05:20N 47°59' W 122°14'0 0.0
2017-Jun-27 04:58N 47°59' W 122°14'0 0.0
2017-Jun-27 04:30N 47°59' W 122°14'1 2.1
2017-Jun-27 04:00N 48°00' W 122°14'2 3.8
2017-Jun-27 03:30N 48°01' W 122°11'1 1.9
2017-Jun-27 02:55N 48°01' W 122°13'2 4.2
2017-Jun-27 02:31N 47°60' W 122°14'1 1.5
2017-Jun-27 02:00N 47°59' W 122°14'0 0.0
2017-Jun-27 01:30N 47°59' W 122°14'0 0.0
2017-Jun-27 01:00N 47°59' W 122°14'0 0.0
2017-Jun-27 00:30N 47°59' W 122°14'0 0.0
2017-Jun-27 00:00N 47°59' W 122°14'0 0.0
2017-Jun-26 23:31N 47°59' W 122°14'0 0.7
2017-Jun-26 23:01N 47°59' W 122°15'3 6.4
2017-Jun-26 22:30N 47°57' W 122°19'4 7.7
2017-Jun-26 22:00N 47°54' W 122°21'4 7.8
2017-Jun-26 21:31N 47°50' W 122°24'4 7.6
2017-Jun-26 21:00N 47°46' W 122°25'4 7.5
2017-Jun-26 20:31N 47°43' W 122°26'4 7.7
2017-Jun-26 20:00N 47°39' W 122°27'4 8.0
2017-Jun-26 19:31N 47°35' W 122°26'4 8.1
2017-Jun-26 19:00N 47°31' W 122°29'5 9.3
2017-Jun-26 18:30N 47°27' W 122°31'5 9.1
2017-Jun-26 18:01N 47°22' W 122°32'610.7
2017-Jun-26 17:29N 47°17' W 122°33'7 9.3
2017-Jun-26 16:46N 47°11' W 122°39'  
2017-Jun-22 07:14N 47°13' W 122°37'2 8.7
2017-Jun-22 06:58N 47°14' W 122°35'5 8.9
2017-Jun-22 06:27N 47°19' W 122°33'3 7.7
2017-Jun-22 06:00N 47°22' W 122°32'4 7.6
2017-Jun-22 05:30N 47°26' W 122°31'4 7.2
2017-Jun-22 05:00N 47°30' W 122°30'4 7.5
2017-Jun-22 04:30N 47°33' W 122°27'4 7.7
2017-Jun-22 04:00N 47°36' W 122°24'3 5.2
2017-Jun-22 03:30N 47°34' W 122°21'0 0.0
2017-Jun-22 03:00N 47°34' W 122°21'0 0.0
2017-Jun-22 02:30N 47°34' W 122°21'0 0.0
2017-Jun-22 02:00N 47°34' W 122°21'0 0.0
2017-Jun-22 01:30N 47°34' W 122°21'0 0.0
2017-Jun-22 01:00N 47°34' W 122°21'0 0.0
2017-Jun-22 00:30N 47°34' W 122°21'0 0.0
2017-Jun-22 00:00N 47°34' W 122°21'0 0.2
2017-Jun-21 23:30N 47°34' W 122°21'1 2.2
2017-Jun-21 23:00N 47°35' W 122°21'0 0.0
2017-Jun-21 22:30N 47°35' W 122°21'0 0.0
2017-Jun-21 22:01N 47°35' W 122°21'1 1.6
2017-Jun-21 21:30N 47°34' W 122°21'1 1.0
2017-Jun-21 21:00N 47°34' W 122°21'0 0.0
2017-Jun-21 20:30N 47°34' W 122°21'0 0.0
2017-Jun-21 20:00N 47°34' W 122°21'0 0.0
2017-Jun-21 19:30N 47°34' W 122°21'0 0.0
2017-Jun-21 19:00N 47°34' W 122°21'0 0.0
2017-Jun-21 18:30N 47°34' W 122°21'0 0.0
2017-Jun-21 18:00N 47°34' W 122°21'0 0.0
2017-Jun-21 17:30N 47°34' W 122°21'0 0.0
2017-Jun-21 17:00N 47°34' W 122°21'0 0.0
2017-Jun-21 16:30N 47°34' W 122°21'0 0.0
2017-Jun-21 16:00N 47°34' W 122°21'0 0.0
2017-Jun-21 15:30N 47°34' W 122°21'0 0.0
2017-Jun-21 15:00N 47°34' W 122°21'0 0.0
2017-Jun-21 14:00N 47°34' W 122°21'0 0.0
2017-Jun-21 13:30N 47°34' W 122°21'0 0.0
2017-Jun-21 13:00N 47°34' W 122°21'0 0.0
2017-Jun-21 12:30N 47°34' W 122°21'0 0.0
2017-Jun-21 12:00N 47°34' W 122°21'0 0.0
2017-Jun-21 11:30N 47°34' W 122°21'0 0.0
2017-Jun-21 11:00N 47°34' W 122°21'0 0.0
2017-Jun-21 10:30N 47°34' W 122°21'0 0.0
2017-Jun-21 10:00N 47°34' W 122°21'0 0.0
2017-Jun-21 09:30N 47°34' W 122°21'0 0.0
2017-Jun-21 09:00N 47°34' W 122°21'0 0.0
2017-Jun-21 08:30N 47°34' W 122°21'0 0.0
2017-Jun-21 08:00N 47°34' W 122°21'0 0.0
2017-Jun-21 07:30N 47°34' W 122°21'0 0.0
2017-Jun-21 07:00N 47°34' W 122°21'0 0.0
2017-Jun-21 06:31N 47°34' W 122°21'0 0.4
2017-Jun-21 06:00N 47°34' W 122°21'2 3.2
2017-Jun-21 05:31N 47°36' W 122°22'1 2.6
2017-Jun-21 05:00N 47°36' W 122°24'4 7.4
2017-Jun-21 04:30N 47°33' W 122°28'4 7.9
2017-Jun-21 04:00N 47°29' W 122°30'4 7.8
2017-Jun-21 03:30N 47°25' W 122°32'4 7.8
2017-Jun-21 03:00N 47°21' W 122°32'5 8.6
2017-Jun-21 02:28N 47°17' W 122°32'4 9.3
2017-Jun-21 02:00N 47°13' W 122°36'0 0.0
2017-Jun-20 06:01N 47°13' W 122°36'0 8.4
2017-Jun-20 06:00N 47°13' W 122°36'6 8.9
2017-Jun-20 05:20N 47°19' W 122°33'3 8.3
2017-Jun-20 05:00N 47°21' W 122°33'4 7.6
2017-Jun-20 04:31N 47°25' W 122°32'4 7.3
2017-Jun-20 04:01N 47°29' W 122°31'4 7.1
2017-Jun-20 03:31N 47°32' W 122°28'4 7.3
2017-Jun-20 03:00N 47°35' W 122°25'2 4.8
2017-Jun-20 02:30N 47°35' W 122°22'2 3.4
2017-Jun-20 02:00N 47°33' W 122°21'0 0.0
2017-Jun-20 01:31N 47°33' W 122°21'0 0.0
2017-Jun-20 01:00N 47°33' W 122°21'0 0.0
2017-Jun-20 00:31N 47°33' W 122°21'0 0.0
2017-Jun-20 00:00N 47°33' W 122°21'0 0.0
2017-Jun-19 23:31N 47°33' W 122°21'0 0.0
2017-Jun-19 23:01N 47°33' W 122°21'0 0.0
2017-Jun-19 22:31N 47°33' W 122°21'0 0.0
2017-Jun-19 22:01N 47°33' W 122°21'0 0.0
2017-Jun-19 21:31N 47°33' W 122°21'0 0.0
2017-Jun-19 21:00N 47°33' W 122°21'0 0.0
2017-Jun-19 20:31N 47°33' W 122°21'0 0.0
2017-Jun-19 20:01N 47°33' W 122°21'0 0.0
2017-Jun-19 19:30N 47°33' W 122°21'0 0.0
2017-Jun-19 19:00N 47°33' W 122°21'0 0.0
2017-Jun-19 18:31N 47°33' W 122°21'0 0.0
2017-Jun-19 18:01N 47°33' W 122°21'0 0.0
2017-Jun-19 17:31N 47°33' W 122°21'0 0.0
2017-Jun-19 17:01N 47°33' W 122°21'0 0.0
2017-Jun-19 16:31N 47°33' W 122°21'0 0.0
2017-Jun-19 16:00N 47°33' W 122°21'0 0.0
2017-Jun-19 15:31N 47°33' W 122°21'0 0.0
2017-Jun-19 15:01N 47°33' W 122°21'2 3.0
2017-Jun-19 14:30N 47°35' W 122°22'5 4.9
2017-Jun-19 13:31N 47°32' W 122°28'4 8.7
2017-Jun-19 13:01N 47°28' W 122°31'4 8.5
2017-Jun-19 12:30N 47°24' W 122°32'4 8.8
2017-Jun-19 12:00N 47°20' W 122°33'510.3
2017-Jun-19 11:30N 47°15' W 122°34'  
Track history (hours):
 
Tides and Currents Weather Stations Pressure Air Temp Water Temp Dewpoint Dewpoint Depression Visibility Wind Speed Wind Dir Waves Ship Positions

Holly Ann

Owner: Manke Tug and Barge Co., Inc., Shelton, WA. More information available from US FCC via Universal Licensing System and Coast Guard Vessel Documentation Center.

Last reported at 2017-Jun-27 06:30 UTC. Time now 2017-Jun-27 06:52 UTC.
Position N 47°59' W 122°14'.

; draft 4.5 m.

Type: Towing. MMSI: 367413350.

Date/timePositionNaut miles runAvg speedWind from/ knotsBaromVisibWave heightAir tempDewpointWater temp
2017-Jun-27 06:30N 47°59' W 122°14'0 0.0
2017-Jun-27 06:00N 47°59' W 122°14'0 0.0
2017-Jun-27 05:20N 47°59' W 122°14'0 0.0
2017-Jun-27 04:58N 47°59' W 122°14'0 0.0
2017-Jun-27 04:30N 47°59' W 122°14'1 2.1
2017-Jun-27 04:00N 48°00' W 122°14'2 3.8
2017-Jun-27 03:30N 48°01' W 122°11'1 1.9
2017-Jun-27 02:55N 48°01' W 122°13'2 4.2
2017-Jun-27 02:31N 47°60' W 122°14'1 1.5
2017-Jun-27 02:00N 47°59' W 122°14'0 0.0
2017-Jun-27 01:30N 47°59' W 122°14'0 0.0
2017-Jun-27 01:00N 47°59' W 122°14'0 0.0
2017-Jun-27 00:30N 47°59' W 122°14'0 0.0
2017-Jun-27 00:00N 47°59' W 122°14'0 0.0
2017-Jun-26 23:31N 47°59' W 122°14'0 0.7
2017-Jun-26 23:01N 47°59' W 122°15'3 6.4
2017-Jun-26 22:30N 47°57' W 122°19'4 7.7
2017-Jun-26 22:00N 47°54' W 122°21'4 7.8
2017-Jun-26 21:31N 47°50' W 122°24'4 7.6
2017-Jun-26 21:00N 47°46' W 122°25'4 7.5
2017-Jun-26 20:31N 47°43' W 122°26'4 7.7
2017-Jun-26 20:00N 47°39' W 122°27'4 8.0
2017-Jun-26 19:31N 47°35' W 122°26'4 8.1
2017-Jun-26 19:00N 47°31' W 122°29'5 9.3
2017-Jun-26 18:30N 47°27' W 122°31'5 9.1
2017-Jun-26 18:01N 47°22' W 122°32'610.7
2017-Jun-26 17:29N 47°17' W 122°33'7 9.3
2017-Jun-26 16:46N 47°11' W 122°39'  
2017-Jun-22 07:14N 47°13' W 122°37'2 8.7
2017-Jun-22 06:58N 47°14' W 122°35'5 8.9
2017-Jun-22 06:27N 47°19' W 122°33'3 7.7
2017-Jun-22 06:00N 47°22' W 122°32'4 7.6
2017-Jun-22 05:30N 47°26' W 122°31'4 7.2
2017-Jun-22 05:00N 47°30' W 122°30'4 7.5
2017-Jun-22 04:30N 47°33' W 122°27'4 7.7
2017-Jun-22 04:00N 47°36' W 122°24'3 5.2
2017-Jun-22 03:30N 47°34' W 122°21'0 0.0
2017-Jun-22 03:00N 47°34' W 122°21'0 0.0
2017-Jun-22 02:30N 47°34' W 122°21'0 0.0
2017-Jun-22 02:00N 47°34' W 122°21'0 0.0
2017-Jun-22 01:30N 47°34' W 122°21'0 0.0
2017-Jun-22 01:00N 47°34' W 122°21'0 0.0
2017-Jun-22 00:30N 47°34' W 122°21'0 0.0
2017-Jun-22 00:00N 47°34' W 122°21'0 0.2
2017-Jun-21 23:30N 47°34' W 122°21'1 2.2
2017-Jun-21 23:00N 47°35' W 122°21'0 0.0
2017-Jun-21 22:30N 47°35' W 122°21'0 0.0
2017-Jun-21 22:01N 47°35' W 122°21'1 1.6
2017-Jun-21 21:30N 47°34' W 122°21'1 1.0
2017-Jun-21 21:00N 47°34' W 122°21'0 0.0
2017-Jun-21 20:30N 47°34' W 122°21'0 0.0
2017-Jun-21 20:00N 47°34' W 122°21'0 0.0
2017-Jun-21 19:30N 47°34' W 122°21'0 0.0
2017-Jun-21 19:00N 47°34' W 122°21'0 0.0
2017-Jun-21 18:30N 47°34' W 122°21'0 0.0
2017-Jun-21 18:00N 47°34' W 122°21'0 0.0
2017-Jun-21 17:30N 47°34' W 122°21'0 0.0
2017-Jun-21 17:00N 47°34' W 122°21'0 0.0
2017-Jun-21 16:30N 47°34' W 122°21'0 0.0
2017-Jun-21 16:00N 47°34' W 122°21'0 0.0
2017-Jun-21 15:30N 47°34' W 122°21'0 0.0
2017-Jun-21 15:00N 47°34' W 122°21'0 0.0
2017-Jun-21 14:00N 47°34' W 122°21'0 0.0
2017-Jun-21 13:30N 47°34' W 122°21'0 0.0
2017-Jun-21 13:00N 47°34' W 122°21'0 0.0
2017-Jun-21 12:30N 47°34' W 122°21'0 0.0
2017-Jun-21 12:00N 47°34' W 122°21'0 0.0
2017-Jun-21 11:30N 47°34' W 122°21'0 0.0
2017-Jun-21 11:00N 47°34' W 122°21'0 0.0
2017-Jun-21 10:30N 47°34' W 122°21'0 0.0
2017-Jun-21 10:00N 47°34' W 122°21'0 0.0
2017-Jun-21 09:30N 47°34' W 122°21'0 0.0
2017-Jun-21 09:00N 47°34' W 122°21'0 0.0
2017-Jun-21 08:30N 47°34' W 122°21'0 0.0
2017-Jun-21 08:00N 47°34' W 122°21'0 0.0
2017-Jun-21 07:30N 47°34' W 122°21'0 0.0
2017-Jun-21 07:00N 47°34' W 122°21'0 0.0
2017-Jun-21 06:31N 47°34' W 122°21'0 0.4
2017-Jun-21 06:00N 47°34' W 122°21'2 3.2
2017-Jun-21 05:31N 47°36' W 122°22'1 2.6
2017-Jun-21 05:00N 47°36' W 122°24'4 7.4
2017-Jun-21 04:30N 47°33' W 122°28'4 7.9
2017-Jun-21 04:00N 47°29' W 122°30'4 7.8
2017-Jun-21 03:30N 47°25' W 122°32'4 7.8
2017-Jun-21 03:00N 47°21' W 122°32'5 8.6
2017-Jun-21 02:28N 47°17' W 122°32'4 9.3
2017-Jun-21 02:00N 47°13' W 122°36'0 0.0
2017-Jun-20 06:01N 47°13' W 122°36'0 8.4
2017-Jun-20 06:00N 47°13' W 122°36'6 8.9
2017-Jun-20 05:20N 47°19' W 122°33'3 8.3
2017-Jun-20 05:00N 47°21' W 122°33'4 7.6
2017-Jun-20 04:31N 47°25' W 122°32'4 7.3
2017-Jun-20 04:01N 47°29' W 122°31'4 7.1
2017-Jun-20 03:31N 47°32' W 122°28'4 7.3
2017-Jun-20 03:00N 47°35' W 122°25'2 4.8
2017-Jun-20 02:30N 47°35' W 122°22'2 3.4
2017-Jun-20 02:00N 47°33' W 122°21'0 0.0
2017-Jun-20 01:31N 47°33' W 122°21'0 0.0
2017-Jun-20 01:00N 47°33' W 122°21'0 0.0
2017-Jun-20 00:31N 47°33' W 122°21'0 0.0
2017-Jun-20 00:00N 47°33' W 122°21'0 0.0
2017-Jun-19 23:31N 47°33' W 122°21'0 0.0
2017-Jun-19 23:01N 47°33' W 122°21'0 0.0
2017-Jun-19 22:31N 47°33' W 122°21'0 0.0
2017-Jun-19 22:01N 47°33' W 122°21'0 0.0
2017-Jun-19 21:31N 47°33' W 122°21'0 0.0
2017-Jun-19 21:00N 47°33' W 122°21'0 0.0
2017-Jun-19 20:31N 47°33' W 122°21'0 0.0
2017-Jun-19 20:01N 47°33' W 122°21'0 0.0
2017-Jun-19 19:30N 47°33' W 122°21'0 0.0
2017-Jun-19 19:00N 47°33' W 122°21'0 0.0
2017-Jun-19 18:31N 47°33' W 122°21'0 0.0
2017-Jun-19 18:01N 47°33' W 122°21'0 0.0
2017-Jun-19 17:31N 47°33' W 122°21'0 0.0
2017-Jun-19 17:01N 47°33' W 122°21'0 0.0
2017-Jun-19 16:31N 47°33' W 122°21'0 0.0
2017-Jun-19 16:00N 47°33' W 122°21'0 0.0
2017-Jun-19 15:31N 47°33' W 122°21'0 0.0
2017-Jun-19 15:01N 47°33' W 122°21'2 3.0
2017-Jun-19 14:30N 47°35' W 122°22'5 4.9
2017-Jun-19 13:31N 47°32' W 122°28'4 8.7
2017-Jun-19 13:01N 47°28' W 122°31'4 8.5
2017-Jun-19 12:30N 47°24' W 122°32'4 8.8
2017-Jun-19 12:00N 47°20' W 122°33'510.3
2017-Jun-19 11:30N 47°15' W 122°34'  

Dump ship's entire track history